Time;durP1;ratioP1;P1;durP2;ratioP2;P2;SDS_P1;SDS_P2;PMS_P1;PMS_P2;Temp;Humidity;BMP_temperature;BMP_pressure;BME280_temperature;BME280_humidity;BME280_pressure;Samples;Min_cycle;Max_cycle;Signal;HPM_P1;HPM_P2
2022/05/07 00:02:19;;;;;;;5.20;3.60;;;;;;;17.65;66.96;101760.06;4998022;28;20531;-90
2022/05/07 00:04:50;;;;;;;8.53;3.30;;;;;;;17.62;66.51;101749.41;4981865;28;20448;-91
2022/05/07 00:07:18;;;;;;;5.97;3.13;;;;;;;17.63;66.46;101748.34;4997596;28;20448;-90
2022/05/07 00:09:47;;;;;;;7.57;3.60;;;;;;;17.57;66.70;101738.97;4997617;28;20479;-91
2022/05/07 00:12:16;;;;;;;7.33;3.07;;;;;;;17.60;66.34;101748.78;5013525;28;20887;-89
2022/05/07 00:14:45;;;;;;;5.00;3.00;;;;;;;17.61;65.63;101748.56;5007149;28;20947;-90
2022/05/07 00:20:05;;;;;;;6.90;3.87;;;;;;;17.70;65.77;101752.00;5007806;28;20477;-90
2022/05/07 00:22:34;;;;;;;7.13;3.43;;;;;;;17.63;65.63;101740.06;4994338;28;20460;-91
2022/05/07 00:25:02;;;;;;;4.20;3.03;;;;;;;17.66;65.82;101745.19;5009611;28;21048;-90
2022/05/07 00:27:30;;;;;;;7.60;3.30;;;;;;;17.59;66.35;101739.63;4997223;28;20531;-91
2022/05/07 00:29:58;;;;;;;7.73;3.83;;;;;;;17.59;66.14;101727.72;4997540;28;20447;-90
2022/05/07 00:32:27;;;;;;;6.93;3.60;;;;;;;17.53;66.65;101729.41;4981847;28;20923;-90
2022/05/07 00:34:54;;;;;;;4.73;3.23;;;;;;;17.58;66.71;101731.53;4997286;28;20941;-90
2022/05/07 00:37:23;;;;;;;5.43;3.40;;;;;;;17.58;66.05;101734.31;4993277;28;20480;-90
2022/05/07 00:39:52;;;;;;;8.27;3.37;;;;;;;17.57;66.27;101735.38;4977826;28;20445;-89
2022/05/07 00:42:21;;;;;;;7.90;3.63;;;;;;;17.55;66.48;101720.91;4978473;28;20446;-91
2022/05/07 00:44:49;;;;;;;7.37;2.90;;;;;;;17.49;66.38;101716.28;4993610;28;20947;-90
2022/05/07 00:47:34;;;;;;;7.07;3.10;;;;;;;17.49;66.23;101719.03;5010562;28;20484;-90
2022/05/07 00:52:49;;;;;;;7.47;3.40;;;;;;;17.49;66.32;101717.13;4994202;28;20437;-91
2022/05/07 00:55:16;;;;;;;5.60;3.73;;;;;;;17.51;66.09;101726.00;4997149;28;20444;-90
2022/05/07 00:57:45;;;;;;;8.00;3.50;;;;;;;17.53;66.21;101712.84;4997173;28;20945;-90
2022/05/07 01:00:14;;;;;;;6.33;3.50;;;;;;;17.54;66.63;101713.69;4996466;28;20448;-90
2022/05/07 01:02:44;;;;;;;4.33;3.30;;;;;;;17.60;66.58;101712.81;4991846;28;20539;-90
2022/05/07 01:05:16;;;;;;;9.20;3.15;;;;;;;17.60;67.65;101710.06;4993567;28;20446;-91
2022/05/07 01:07:46;;;;;;;6.07;3.50;;;;;;;17.45;68.69;101684.59;5012122;28;20453;-91
2022/05/07 01:10:17;;;;;;;8.40;3.50;;;;;;;17.61;69.20;101701.56;4993267;28;20469;-90
2022/05/07 01:12:47;;;;;;;5.90;3.33;;;;;;;17.43;70.04;101692.25;5017807;28;20946;-90
2022/05/07 01:15:16;;;;;;;8.27;3.97;;;;;;;17.43;71.43;101692.25;4991063;28;20449;-90
2022/05/07 01:17:44;;;;;;;13.07;3.93;;;;;;;17.30;72.85;101675.69;4992808;28;20962;-91
2022/05/07 01:20:13;;;;;;;12.13;4.00;;;;;;;17.36;73.63;101699.69;5009366;28;20939;-90
2022/05/07 01:22:42;;;;;;;7.40;4.07;;;;;;;17.29;74.88;101685.91;5009071;28;20970;-90
2022/05/07 01:25:09;;;;;;;9.47;4.10;;;;;;;17.25;76.14;101685.47;5007652;28;20848;-91
2022/05/07 01:27:38;;;;;;;9.97;4.17;;;;;;;17.21;76.67;101686.97;5012630;28;20491;-90
2022/05/07 01:30:06;;;;;;;8.57;4.00;;;;;;;17.21;77.34;101688.88;5011994;28;20451;-91
2022/05/07 01:32:37;;;;;;;8.67;4.47;;;;;;;17.24;77.57;101689.31;4992905;28;20453;-91
2022/05/07 01:35:07;;;;;;;14.43;4.80;;;;;;;17.21;77.88;101683.34;4980114;28;20456;-91
2022/05/07 01:37:36;;;;;;;6.60;3.60;;;;;;;17.15;77.80;101676.75;4995864;28;20444;-90
2022/05/07 01:40:04;;;;;;;13.47;4.63;;;;;;;17.18;78.61;101690.16;5011776;28;20443;-92
2022/05/07 01:42:32;;;;;;;11.50;4.90;;;;;;;17.16;78.77;101691.44;4996190;28;20450;-91
2022/05/07 01:45:01;;;;;;;12.10;3.80;;;;;;;17.02;79.03;101684.22;4996015;28;20446;-91
2022/05/07 01:50:15;;;;;;;9.00;4.17;;;;;;;16.94;78.80;101657.66;5013122;28;20954;-91
2022/05/07 01:52:43;;;;;;;6.80;4.20;;;;;;;17.00;78.65;101667.00;5012371;28;20819;-91
2022/05/07 01:55:11;;;;;;;8.20;3.67;;;;;;;16.98;78.76;101669.97;4996017;28;20459;-90
2022/05/07 01:57:39;;;;;;;11.33;4.40;;;;;;;17.03;78.63;101663.81;4995961;28;20456;-90
2022/05/07 02:00:08;;;;;;;9.67;4.27;;;;;;;17.01;78.68;101664.03;5012302;28;20429;-90
2022/05/07 02:02:36;;;;;;;11.57;4.60;;;;;;;16.93;78.69;101662.34;5027970;28;20444;-90
2022/05/07 02:05:04;;;;;;;10.70;3.90;;;;;;;16.95;78.85;101652.97;5028433;28;20494;-91
2022/05/07 02:07:32;;;;;;;10.90;3.53;;;;;;;16.92;78.97;101668.94;4980272;28;20498;-91
2022/05/07 02:09:59;;;;;;;10.70;4.23;;;;;;;16.85;79.08;101647.91;4987202;28;20480;-90
2022/05/07 02:12:29;;;;;;;11.57;4.67;;;;;;;16.90;78.90;101653.66;5012561;28;20499;-91
2022/05/07 02:14:57;;;;;;;12.57;3.07;;;;;;;16.90;79.05;101661.94;4984248;28;20804;-90
2022/05/07 02:17:25;;;;;;;12.53;4.57;;;;;;;16.88;78.95;101655.78;4980461;28;20424;-91
2022/05/07 02:19:53;;;;;;;10.70;4.50;;;;;;;16.88;79.40;101659.38;5008714;28;20441;-90
2022/05/07 02:22:21;;;;;;;13.10;5.10;;;;;;;16.83;80.57;101661.06;4992557;28;20445;-90
2022/05/07 02:24:50;;;;;;;12.93;5.23;;;;;;;16.83;81.38;101661.06;4995326;28;20447;-90
2022/05/07 02:27:19;;;;;;;8.17;4.20;;;;;;;16.77;82.04;101653.63;5011989;28;20989;-90
2022/05/07 02:29:46;;;;;;;7.43;4.17;;;;;;;16.77;83.16;101650.88;4999171;28;20444;-92
2022/05/07 02:32:14;;;;;;;9.47;5.20;;;;;;;16.69;84.25;101640.06;4983673;28;20453;-91
2022/05/07 02:34:42;;;;;;;9.97;4.50;;;;;;;16.70;85.06;101639.00;5000332;28;20455;-91
2022/05/07 02:37:10;;;;;;;17.50;5.00;;;;;;;16.69;85.56;101651.09;4999161;28;20474;-91
2022/05/07 02:39:39;;;;;;;16.77;5.73;;;;;;;16.62;86.78;101644.69;4999098;28;20528;-91
2022/05/07 02:44:58;;;;;;;8.70;4.83;;;;;;;16.52;87.58;101648.72;4998456;28;20536;-91
2022/05/07 02:47:26;;;;;;;12.80;6.50;;;;;;;16.46;88.00;101644.03;4979663;28;20484;-90
2022/05/07 02:49:55;;;;;;;9.97;4.80;;;;;;;16.43;88.74;101644.47;4973588;28;20449;-91
2022/05/07 02:52:24;;;;;;;15.60;5.23;;;;;;;16.39;88.75;101648.69;4998727;28;20438;-90
2022/05/07 02:54:54;;;;;;;21.90;5.10;;;;;;;16.31;88.71;101635.09;4999085;28;20440;-91
2022/05/07 02:57:22;;;;;;;16.63;7.13;;;;;;;16.34;88.31;101651.25;4999209;28;20506;-91
2022/05/07 02:59:50;;;;;;;14.53;5.70;;;;;;;16.37;88.86;101645.28;4979712;28;20449;-90
2022/05/07 03:02:17;;;;;;;14.20;5.10;;;;;;;16.29;88.62;101636.38;4996178;28;20456;-91
2022/05/07 03:04:47;;;;;;;15.40;5.80;;;;;;;16.19;88.55;101626.59;4988570;28;20874;-91
2022/05/07 03:07:15;;;;;;;12.17;5.40;;;;;;;16.31;88.28;101646.16;5000113;28;20495;-91
2022/05/07 03:09:43;;;;;;;11.50;5.50;;;;;;;16.18;88.20;101630.41;5030633;28;20628;-90
2022/05/07 03:12:12;;;;;;;17.93;6.00;;;;;;;16.27;88.13;101644.84;4998902;28;20444;-91
2022/05/07 03:14:46;;;;;;;10.27;6.13;;;;;;;16.30;87.87;101657.38;4999034;28;20440;-91
2022/05/07 03:17:16;;;;;;;10.53;5.20;;;;;;;16.33;88.10;101657.81;4983000;28;20977;-91
2022/05/07 03:19:45;;;;;;;9.80;5.87;;;;;;;16.29;87.76;101653.78;4999501;28;20444;-91
2022/05/07 03:22:20;;;;;;;8.37;4.50;;;;;;;16.28;87.86;101656.75;4999140;28;20436;-91
2022/05/07 03:24:50;;;;;;;15.67;5.90;;;;;;;16.25;87.98;101644.22;4995325;28;20858;-91
2022/05/07 03:27:17;;;;;;;13.03;5.93;;;;;;;16.26;88.38;101648.69;4991621;28;20464;-91
2022/05/07 03:29:48;;;;;;;12.20;6.33;;;;;;;16.19;88.46;101642.28;4998598;28;20528;-91
2022/05/07 03:32:19;;;;;;;13.20;5.60;;;;;;;16.15;89.13;101649.31;5022675;28;20444;-91
2022/05/07 03:34:47;;;;;;;13.13;6.37;;;;;;;16.09;89.82;101647.38;4982612;28;20444;-90
2022/05/07 03:37:15;;;;;;;17.87;7.30;;;;;;;16.05;90.54;101651.59;4979142;28;20496;-91
2022/05/07 03:39:53;;;;;;;16.80;6.97;;;;;;;15.96;90.34;101636.31;4979206;28;20438;-91
2022/05/07 03:42:23;;;;;;;17.67;8.50;;;;;;;16.00;91.36;101648.59;5013346;28;20444;-91
2022/05/07 03:44:51;;;;;;;14.57;7.47;;;;;;;15.87;91.67;101642.00;4998405;28;20449;-91
2022/05/07 03:47:18;;;;;;;12.70;7.80;;;;;;;15.80;92.03;101638.34;4995081;28;20481;-91
2022/05/07 03:49:46;;;;;;;18.50;7.27;;;;;;;15.79;92.42;101636.66;4994775;28;21040;-90
2022/05/07 03:55:01;;;;;;;11.17;7.43;;;;;;;15.59;92.66;101634.91;5018752;28;20444;-90
2022/05/07 03:57:31;;;;;;;14.60;7.80;;;;;;;15.51;93.47;101633.13;4980216;28;20445;-91
2022/05/07 04:00:00;;;;;;;13.20;7.80;;;;;;;15.45;93.21;101631.16;5010853;28;20813;-90
2022/05/07 04:02:32;;;;;;;9.80;7.17;;;;;;;15.44;93.68;101643.25;4994555;28;20472;-91
2022/05/07 04:04:59;;;;;;;11.90;6.87;;;;;;;15.33;94.39;101632.81;4994280;28;20441;-90
2022/05/07 04:07:28;;;;;;;13.03;8.20;;;;;;;15.34;94.35;101642.78;4982211;28;20487;-91
2022/05/07 04:09:57;;;;;;;10.27;8.27;;;;;;;15.30;94.28;101635.97;5005604;28;20476;-92
2022/05/07 04:12:26;;;;;;;10.60;7.17;;;;;;;15.28;94.72;101646.34;5009690;28;20536;-90
2022/05/07 04:15:00;;;;;;;9.60;7.77;;;;;;;15.28;94.84;101638.06;4978222;28;20934;-90
2022/05/07 04:17:28;;;;;;;11.73;8.50;;;;;;;15.23;95.16;101640.56;4978894;28;20449;-90
2022/05/07 04:20:05;;;;;;;10.13;6.80;;;;;;;15.20;95.21;101642.69;4994023;28;20480;-90
2022/05/07 04:22:34;;;;;;;12.03;8.90;;;;;;;15.16;95.65;101646.91;5001949;28;20441;-90
2022/05/07 04:25:08;;;;;;;11.40;8.37;;;;;;;15.07;95.89;101642.59;4978351;28;20441;-90
2022/05/07 04:27:36;;;;;;;10.60;7.47;;;;;;;14.99;96.12;101634.50;4997466;28;21004;-90
2022/05/07 04:30:05;;;;;;;11.77;8.77;;;;;;;15.00;96.63;101652.72;4997762;28;20939;-90
2022/05/07 04:32:33;;;;;;;12.27;8.73;;;;;;;14.93;96.95;101635.31;4997955;28;20448;-91
2022/05/07 04:35:01;;;;;;;12.30;8.40;;;;;;;14.92;97.42;101639.09;4998012;28;20433;-91
2022/05/07 04:37:29;;;;;;;13.70;9.10;;;;;;;14.92;97.52;101636.34;4993744;28;20970;-91
2022/05/07 04:39:57;;;;;;;11.30;8.80;;;;;;;14.89;97.67;101639.50;4983154;28;20445;-91
2022/05/07 04:42:25;;;;;;;11.77;8.83;;;;;;;14.93;97.56;101631.69;5004820;28;20453;-91
2022/05/07 04:44:54;;;;;;;11.13;8.87;;;;;;;14.90;98.31;101627.44;4977982;28;20445;-90
2022/05/07 04:47:23;;;;;;;15.53;9.20;;;;;;;14.93;97.80;101635.31;5028397;28;21036;-91
2022/05/07 04:49:51;;;;;;;12.90;8.83;;;;;;;14.92;98.09;101624.50;4981239;28;20476;-91
2022/05/07 04:52:20;;;;;;;10.23;7.13;;;;;;;14.89;97.73;101636.75;4981028;28;20922;-91
2022/05/07 04:54:48;;;;;;;13.63;8.43;;;;;;;14.92;97.55;101630.00;4996691;28;20548;-91
2022/05/07 04:57:17;;;;;;;11.07;8.00;;;;;;;14.97;97.78;101633.84;4996644;28;20538;-90
2022/05/07 04:59:48;;;;;;;11.50;7.83;;;;;;;14.93;97.21;101617.94;5009284;28;20437;-90
2022/05/07 05:02:17;;;;;;;10.27;7.80;;;;;;;14.88;97.36;101615.78;4993182;28;20446;-90
2022/05/07 05:04:44;;;;;;;10.90;7.90;;;;;;;14.83;97.53;101624.63;5014333;28;20456;-90
2022/05/07 05:07:12;;;;;;;11.03;7.27;;;;;;;14.80;97.48;101618.72;4995981;28;20488;-90
2022/05/07 05:09:39;;;;;;;10.63;7.93;;;;;;;14.80;97.75;101613.19;4987774;28;20816;-90
2022/05/07 05:12:09;;;;;;;11.17;8.27;;;;;;;14.78;97.64;101626.31;5008930;28;20469;-90
2022/05/07 05:17:23;;;;;;;15.07;8.17;;;;;;;14.84;97.17;101631.00;4998728;28;20448;-90
2022/05/07 05:20:01;;;;;;;11.30;7.47;;;;;;;14.90;96.56;101635.69;4986185;28;20437;-91
2022/05/07 05:22:29;;;;;;;12.00;7.53;;;;;;;14.85;96.27;101638.19;4990685;28;20444;-90
2022/05/07 05:24:57;;;;;;;8.17;6.47;;;;;;;14.84;96.07;101637.34;4992394;28;20440;-90
2022/05/07 05:27:25;;;;;;;8.37;6.90;;;;;;;14.79;96.60;101644.53;4996314;28;20499;-90
2022/05/07 05:29:52;;;;;;;11.43;8.10;;;;;;;14.79;96.51;101639.88;4996416;28;20849;-90
2022/05/07 05:32:22;;;;;;;10.10;7.93;;;;;;;14.81;96.52;101642.41;5028346;28;20436;-91
2022/05/07 05:34:52;;;;;;;11.60;8.07;;;;;;;14.79;96.47;101652.78;4996904;28;20440;-91
2022/05/07 05:37:21;;;;;;;10.07;8.23;;;;;;;14.72;97.02;101638.09;4996371;28;20436;-91
2022/05/07 05:39:48;;;;;;;10.67;7.27;;;;;;;14.75;97.35;101648.72;4996235;28;20938;-90
2022/05/07 05:42:17;;;;;;;10.80;6.97;;;;;;;14.73;97.26;101650.81;4996140;28;20486;-90
2022/05/07 05:44:45;;;;;;;13.43;8.23;;;;;;;14.69;97.78;101660.50;4990108;28;20496;-91
2022/05/07 05:47:13;;;;;;;8.50;6.87;;;;;;;14.69;97.81;101663.25;4970237;28;20973;-91
2022/05/07 05:49:41;;;;;;;11.10;8.83;;;;;;;14.67;98.08;101662.59;4981028;28;20476;-91
2022/05/07 05:52:10;;;;;;;13.40;8.83;;;;;;;14.69;98.52;101660.50;4996411;28;20440;-91
2022/05/07 05:54:38;;;;;;;13.03;9.37;;;;;;;14.66;98.53;101660.91;4996573;28;20459;-90
2022/05/07 05:57:11;;;;;;;13.27;9.23;;;;;;;14.64;99.58;101657.50;4996389;28;20454;-91
2022/05/07 05:59:47;;;;;;;13.57;9.20;;;;;;;14.67;99.51;101654.34;5008048;28;20446;-91
2022/05/07 06:02:18;;;;;;;15.87;9.40;;;;;;;14.64;99.73;101652.84;5012451;28;20535;-91
2022/05/07 06:04:49;;;;;;;12.77;9.07;;;;;;;14.59;99.47;101660.88;5011717;28;20448;-91
2022/05/07 06:07:17;;;;;;;14.80;9.33;;;;;;;14.58;100.00;101664.66;4999492;28;20544;-91
2022/05/07 06:09:46;;;;;;;11.10;8.10;;;;;;;14.61;100.00;101666.16;4966791;28;20516;-90
2022/05/07 06:12:14;;;;;;;14.90;9.47;;;;;;;14.67;100.00;101662.59;4964913;28;20447;-90
2022/05/07 06:14:44;;;;;;;12.20;8.90;;;;;;;14.61;99.69;101653.25;5015118;28;20448;-90
2022/05/07 06:17:12;;;;;;;10.60;8.57;;;;;;;14.73;99.86;101659.91;5015616;28;20444;-91
2022/05/07 06:19:42;;;;;;;13.30;9.27;;;;;;;14.76;99.67;101661.44;4999420;28;20448;-91
2022/05/07 06:22:11;;;;;;;11.53;8.90;;;;;;;14.80;99.53;101659.97;5000319;28;20450;-91
2022/05/07 06:27:28;;;;;;;15.63;9.10;;;;;;;14.90;99.07;101660.47;5029749;28;20961;-91
2022/05/07 06:29:57;;;;;;;10.27;7.90;;;;;;;14.91;98.95;101667.69;4996304;28;20480;-90
2022/05/07 06:32:40;;;;;;;11.30;7.97;;;;;;;14.96;99.46;101678.97;4989618;28;20448;-91
2022/05/07 06:35:09;;;;;;;11.77;8.37;;;;;;;14.96;99.15;101667.94;5015770;28;20436;-90
2022/05/07 06:37:38;;;;;;;9.60;7.67;;;;;;;15.01;98.68;101657.16;4996116;28;20454;-91
2022/05/07 06:40:06;;;;;;;11.47;8.17;;;;;;;15.08;98.52;101671.84;4980272;28;20449;-90
2022/05/07 06:42:35;;;;;;;12.20;7.80;;;;;;;15.10;98.20;101668.88;5001014;28;20440;-91
2022/05/07 06:45:03;;;;;;;11.47;8.27;;;;;;;15.18;97.72;101672.34;4983090;28;21046;-91
2022/05/07 06:47:33;;;;;;;10.67;7.30;;;;;;;15.20;97.87;101672.97;4995924;28;20509;-90
2022/05/07 06:50:02;;;;;;;15.60;9.20;;;;;;;15.23;97.62;101668.13;4997296;28;20445;-90
2022/05/07 06:52:30;;;;;;;13.37;8.47;;;;;;;15.30;97.15;101669.03;4999196;28;20437;-90
2022/05/07 06:54:59;;;;;;;11.23;7.20;;;;;;;15.35;96.82;101681.13;4999800;28;20474;-91
2022/05/07 06:57:27;;;;;;;11.40;7.43;;;;;;;15.39;97.14;101690.72;4999308;28;20495;-90
2022/05/07 06:59:54;;;;;;;10.30;7.57;;;;;;;15.39;97.30;101684.34;5015182;28;20447;-90
2022/05/07 07:02:22;;;;;;;10.77;7.73;;;;;;;15.48;97.26;101677.59;4982490;28;20438;-90
2022/05/07 07:04:51;;;;;;;10.53;7.83;;;;;;;15.52;97.16;101673.41;4980922;28;20451;-90
2022/05/07 07:07:25;;;;;;;10.43;7.47;;;;;;;15.63;96.72;101683.84;4995801;28;20491;-92
2022/05/07 07:09:53;;;;;;;11.10;7.77;;;;;;;15.64;96.76;101680.06;4996947;28;20464;-91
2022/05/07 07:12:22;;;;;;;9.10;7.43;;;;;;;15.68;96.39;101673.09;4997697;28;20543;-89
2022/05/07 07:15:10;;;;;;;11.20;7.00;;;;;;;15.74;96.67;101676.94;4999915;28;20447;-90
2022/05/07 07:17:42;;;;;;;14.50;8.40;;;;;;;15.87;96.50;101676.97;5006925;28;20455;-90
2022/05/07 07:20:14;;;;;;;12.43;9.20;;;;;;;15.92;95.97;101674.47;4980708;28;20943;-91
2022/05/07 07:22:46;;;;;;;13.60;8.73;;;;;;;16.02;95.71;101671.31;4997149;28;20540;-91
2022/05/07 07:25:20;;;;;;;16.40;9.37;;;;;;;16.10;95.31;101676.66;4983928;28;20954;-90
2022/05/07 07:27:49;;;;;;;14.60;8.50;;;;;;;16.20;95.33;101679.84;4998681;28;20472;-90
2022/05/07 07:30:23;;;;;;;12.10;8.77;;;;;;;16.37;95.30;101683.91;4983226;28;20474;-90
2022/05/07 07:32:53;;;;;;;15.40;9.00;;;;;;;16.43;95.62;101691.38;4997688;28;20446;-90
2022/05/07 07:35:23;;;;;;;11.70;8.27;;;;;;;16.48;94.93;101680.56;5031280;28;20537;-91
2022/05/07 07:37:50;;;;;;;14.80;9.27;;;;;;;16.53;94.55;101689.06;4998963;28;20444;-91
2022/05/07 07:40:54;;;;;;;12.47;8.70;;;;;;;16.69;94.38;101687.84;4997974;28;20451;-95
2022/05/07 07:43:30;;;;;;;13.60;8.20;;;;;;;16.80;94.39;101691.88;5028751;28;20816;-90
2022/05/07 07:49:07;;;;;;;13.43;8.87;;;;;;;17.09;92.93;101693.38;4989410;28;21074;-92
2022/05/07 07:51:35;;;;;;;14.97;8.20;;;;;;;17.19;93.06;101700.13;5034622;28;20471;-92
2022/05/07 07:54:05;;;;;;;16.60;9.37;;;;;;;17.29;92.76;101698.88;5009120;28;20437;-91
2022/05/07 07:56:34;;;;;;;11.13;8.00;;;;;;;17.38;92.49;101694.81;4998771;28;20472;-92
2022/05/07 07:59:02;;;;;;;14.53;8.30;;;;;;;17.44;91.77;101696.72;4998952;28;20452;-92
2022/05/07 08:01:30;;;;;;;17.03;7.57;;;;;;;17.56;91.47;101701.34;4998067;28;20528;-92
2022/05/07 08:04:04;;;;;;;15.23;8.30;;;;;;;17.66;90.98;101713.91;4989110;28;20451;-92
2022/05/07 08:06:38;;;;;;;15.03;8.40;;;;;;;17.73;90.33;101715.56;5011172;28;20473;-92
2022/05/07 08:12:02;;;;;;;11.60;7.73;;;;;;;17.72;89.07;101713.03;5006767;28;20930;-90
2022/05/07 08:14:46;;;;;;;14.50;7.83;;;;;;;17.73;89.56;101707.28;5018853;28;20860;-93
2022/05/07 08:17:16;;;;;;;16.30;8.10;;;;;;;17.84;90.00;101709.41;5011499;28;20950;-91
2022/05/07 08:19:44;;;;;;;16.67;8.70;;;;;;;17.98;89.78;101714.88;5013495;28;20433;-90
2022/05/07 08:22:13;;;;;;;13.40;8.60;;;;;;;18.00;89.96;101698.91;4997973;28;20448;-91
2022/05/07 08:24:41;;;;;;;14.70;9.10;;;;;;;18.16;89.54;101712.22;4998041;28;20469;-90
2022/05/07 08:27:09;;;;;;;15.83;9.90;;;;;;;18.24;89.15;101709.22;4997445;28;20452;-90
2022/05/07 08:29:38;;;;;;;16.87;9.97;;;;;;;18.29;88.59;101720.44;4997453;28;20846;-91
2022/05/07 08:32:07;;;;;;;13.33;9.47;;;;;;;18.34;89.08;101715.09;4978473;28;20508;-92
2022/05/07 08:34:38;;;;;;;12.70;8.67;;;;;;;18.44;89.29;101718.25;5012080;28;20453;-92
2022/05/07 08:37:09;;;;;;;11.30;8.60;;;;;;;18.51;88.58;101710.75;4998276;28;20785;-91
2022/05/07 08:39:46;;;;;;;14.67;10.00;;;;;;;18.61;88.05;101713.94;4962895;28;20434;-92
2022/05/07 08:42:14;;;;;;;13.07;8.63;;;;;;;18.72;87.39;101711.50;4992287;28;20969;-91
2022/05/07 08:44:42;;;;;;;11.90;7.80;;;;;;;18.74;86.91;101706.59;4997312;28;20441;-91
2022/05/07 08:47:10;;;;;;;14.27;9.07;;;;;;;18.89;86.11;101707.09;5013678;28;20452;-92
2022/05/07 08:49:38;;;;;;;17.00;7.07;;;;;;;18.99;85.38;101707.47;4997559;28;20484;-92
2022/05/07 08:52:06;;;;;;;9.70;7.63;;;;;;;19.12;85.17;101715.66;5012961;28;20444;-91
2022/05/07 08:54:43;;;;;;;12.53;8.10;;;;;;;19.20;84.56;101718.16;4995224;28;20440;-90
2022/05/07 08:57:14;;;;;;;10.80;7.03;;;;;;;19.33;84.11;101709.69;4996574;28;20444;-91
2022/05/07 08:59:44;;;;;;;12.80;7.40;;;;;;;19.48;83.87;101702.94;4996350;28;20450;-90
2022/05/07 09:02:13;;;;;;;11.37;7.80;;;;;;;19.61;82.39;101705.63;4989600;28;20869;-88
2022/05/07 09:04:41;;;;;;;13.20;8.20;;;;;;;19.63;81.86;101684.88;4990050;28;20471;-92
2022/05/07 09:07:14;;;;;;;14.67;7.63;;;;;;;19.80;81.77;101687.91;5012719;28;20440;-91
2022/05/07 09:09:48;;;;;;;16.23;8.60;;;;;;;19.96;81.77;101708.63;4996175;28;20503;-91
2022/05/07 09:12:36;;;;;;;14.63;7.73;;;;;;;20.01;80.12;101690.16;4992039;28;20476;-89
2022/05/07 09:15:06;;;;;;;12.90;8.30;;;;;;;20.16;80.35;101694.47;4982961;28;20459;-89
2022/05/07 09:17:38;;;;;;;12.07;8.20;;;;;;;20.29;80.68;101692.38;4992295;28;20581;-89
2022/05/07 09:20:15;;;;;;;14.90;8.17;;;;;;;20.45;79.13;101690.88;4983272;28;20436;-89
2022/05/07 09:22:54;;;;;;;12.40;8.33;;;;;;;20.57;78.65;101697.34;5011765;28;20440;-88
2022/05/07 09:25:24;;;;;;;14.33;8.10;;;;;;;20.68;77.07;101699.28;5011885;28;20476;-88
2022/05/07 09:27:56;;;;;;;9.67;7.20;;;;;;;20.74;75.17;101694.72;5011696;28;20555;-88
2022/05/07 09:30:26;;;;;;;13.90;8.20;;;;;;;20.83;74.50;101693.28;4973535;28;20446;-88
2022/05/07 09:32:55;;;;;;;17.13;8.23;;;;;;;21.05;75.15;101690.78;4974302;28;20446;-88
2022/05/07 09:38:26;;;;;;;13.50;8.10;;;;;;;21.49;74.29;101694.09;5011533;28;20452;-88
2022/05/07 09:41:20;;;;;;;14.20;7.97;;;;;;;21.67;73.01;101683.66;4992356;28;20449;-89
2022/05/07 09:43:54;;;;;;;13.70;8.87;;;;;;;21.93;72.79;101687.00;5022250;28;20439;-90
2022/05/07 09:46:30;;;;;;;14.93;8.93;;;;;;;22.12;71.77;101680.19;5029791;28;20439;-90
2022/05/07 09:49:00;;;;;;;18.07;8.77;;;;;;;22.38;71.47;101679.59;4996110;28;20484;-90
2022/05/07 09:51:29;;;;;;;13.37;9.57;;;;;;;22.59;71.23;101674.41;4996458;28;20455;-90
2022/05/07 09:59:32;;;;;;;16.53;10.90;;;;;;;23.15;70.96;101684.59;4966618;28;20882;-90
2022/05/07 10:02:20;;;;;;;12.60;9.57;;;;;;;23.30;69.76;101687.63;4961381;28;20874;-90
2022/05/07 10:20:44;;;;;;;14.87;9.37;;;;;;;23.94;65.21;101703.91;4991466;28;20556;-85
2022/05/07 10:23:13;;;;;;;14.00;8.87;;;;;;;23.95;65.50;101709.25;4994030;28;20452;-89
2022/05/07 10:25:44;;;;;;;12.33;7.87;;;;;;;24.01;66.48;101711.00;4998664;28;20448;-88
2022/05/07 10:28:15;;;;;;;13.00;8.90;;;;;;;24.07;66.22;101701.56;4996522;28;20483;-90
2022/05/07 10:30:50;;;;;;;14.53;9.30;;;;;;;24.16;65.75;101715.94;4980776;28;20448;-88
2022/05/07 10:33:19;;;;;;;12.63;8.70;;;;;;;24.23;66.14;101712.94;4996736;28;20523;-89
2022/05/07 10:35:54;;;;;;;14.67;9.33;;;;;;;24.33;65.35;101705.53;4995653;28;20595;-88
2022/05/07 10:38:27;;;;;;;13.97;9.60;;;;;;;24.34;63.40;101714.78;4996346;28;20452;-87
2022/05/07 10:41:28;;;;;;;14.53;9.00;;;;;;;24.08;64.87;101708.84;5013466;28;20500;-87
2022/05/07 10:43:56;;;;;;;12.70;8.33;;;;;;;23.99;65.34;101704.84;4997257;28;20436;-87
2022/05/07 10:46:25;;;;;;;22.27;9.83;;;;;;;24.06;65.12;101701.81;5011918;28;20475;-88
2022/05/07 10:48:57;;;;;;;19.50;9.53;;;;;;;24.14;64.93;101709.75;4991906;28;20480;-89
2022/05/07 10:51:34;;;;;;;17.80;9.70;;;;;;;24.26;64.45;101723.59;4995622;28;20441;-89
2022/05/07 10:54:23;;;;;;;14.33;7.20;;;;;;;24.20;64.16;101705.09;5000119;28;20428;-86
2022/05/07 10:56:54;;;;;;;14.87;9.10;;;;;;;24.05;64.18;101700.16;5001334;28;20440;-88
2022/05/07 10:59:23;;;;;;;13.43;7.60;;;;;;;23.99;64.33;101702.03;5015777;28;20809;-88
2022/05/07 11:01:52;;;;;;;17.20;9.37;;;;;;;24.04;63.90;101710.50;4999241;28;20436;-87
2022/05/07 11:04:22;;;;;;;15.27;10.33;;;;;;;24.09;63.63;101699.34;5014226;28;21298;-87
2022/05/07 11:06:52;;;;;;;12.57;8.87;;;;;;;24.11;63.38;101705.53;5016509;28;20813;-87
2022/05/07 11:09:22;;;;;;;11.53;8.00;;;;;;;24.14;62.45;101706.97;4998892;28;21367;-86
2022/05/07 11:11:57;;;;;;;15.63;8.47;;;;;;;24.18;61.93;101696.13;5015336;28;20444;-85
2022/05/07 11:14:30;;;;;;;13.53;7.57;;;;;;;24.02;61.46;101701.53;5015450;28;20439;-90
2022/05/07 11:17:04;;;;;;;12.37;7.60;;;;;;;24.04;61.63;101710.50;5015503;28;20802;-91
2022/05/07 11:19:37;;;;;;;13.93;8.80;;;;;;;24.17;61.99;101713.97;5030601;28;20444;-86
2022/05/07 11:22:08;;;;;;;15.13;9.30;;;;;;;24.34;62.13;101698.00;5014472;28;20447;-86
2022/05/07 11:24:36;;;;;;;12.13;8.00;;;;;;;24.50;61.83;101708.25;4982934;28;21008;-85
2022/05/07 11:27:11;;;;;;;16.20;9.10;;;;;;;24.57;60.86;101692.13;5015728;28;20495;-85
2022/05/07 11:29:40;;;;;;;12.13;8.60;;;;;;;24.84;60.62;101692.06;5016161;28;20483;-90
2022/05/07 11:32:12;;;;;;;12.17;8.40;;;;;;;24.90;60.37;101688.22;4996831;28;20453;-87
2022/05/07 11:34:41;;;;;;;17.30;8.30;;;;;;;25.01;59.06;101692.00;5030568;28;20455;-88
2022/05/07 11:37:10;;;;;;;12.40;8.83;;;;;;;25.10;59.75;101687.59;5014395;28;20436;-89
2022/05/07 11:39:57;;;;;;;19.43;9.63;;;;;;;25.23;59.83;101672.28;4998104;28;20985;-89
2022/05/07 11:42:46;;;;;;;8.20;7.40;;;;;;;25.38;58.11;101692.84;4999436;28;20451;-90
2022/05/07 11:45:29;;;;;;;12.30;7.93;;;;;;;25.43;57.80;101670.47;5009238;28;20822;-88
2022/05/07 11:48:07;;;;;;;16.70;8.10;;;;;;;25.51;57.22;101680.31;4995086;28;20425;-88
2022/05/07 11:50:56;;;;;;;14.60;6.63;;;;;;;25.37;56.57;101674.38;5014361;28;20945;-88
2022/05/07 11:53:29;;;;;;;10.63;7.20;;;;;;;25.54;57.61;101676.16;5006668;28;20476;-87
2022/05/07 11:56:11;;;;;;;10.53;7.80;;;;;;;25.63;56.63;101669.78;5011864;28;20441;-89
2022/05/07 11:58:44;;;;;;;15.00;7.93;;;;;;;25.81;56.33;101662.84;5023843;28;20444;-89
2022/05/07 12:01:24;;;;;;;11.20;7.57;;;;;;;25.94;55.47;101667.13;5031411;28;20444;-88
2022/05/07 12:03:52;;;;;;;13.33;6.97;;;;;;;25.99;55.25;101659.56;5007365;28;20863;-87
2022/05/07 12:06:28;;;;;;;10.97;7.07;;;;;;;26.02;55.10;101669.38;4962216;28;20950;-87
2022/05/07 12:08:57;;;;;;;12.53;6.90;;;;;;;26.11;54.33;101668.59;4963124;28;20825;-88
2022/05/07 12:11:26;;;;;;;9.20;6.77;;;;;;;26.17;54.63;101664.66;4961928;28;20449;-87
2022/05/07 12:13:54;;;;;;;10.43;6.80;;;;;;;26.30;53.74;101659.72;4978283;28;20496;-87
2022/05/07 12:19:10;;;;;;;11.60;6.93;;;;;;;26.56;54.70;101653.00;5019243;28;20439;-88
2022/05/07 12:30:06;;;;;;;9.23;6.80;;;;;;;27.04;53.11;101642.41;4953847;29;20497;-87
2022/05/07 12:32:33;;;;;;;11.57;6.77;;;;;;;27.10;52.66;101646.91;4953060;28;20877;-87
2022/05/07 12:35:01;;;;;;;7.50;5.77;;;;;;;27.16;51.98;101640.13;4969757;28;20879;-88
2022/05/07 12:37:29;;;;;;;11.07;6.70;;;;;;;27.19;51.81;101636.75;4954137;29;20516;-89